Indianapolis International Airport
KIND : now visible

Airfield :











YOU CAN JOIN US ON...

 
LOGIN :

Register | Disclaimer

   EN    FR    IT 

 









Legend :    VFR   Marginal VFR   IFR   Intensive IFR   Very Intensive IFR
Visi :
Ceiling :
>= 8 km
>= 3000ft
5 to 8 km
1000 to 3000 ft
1500m to 5 km
500 to 1000 ft
800 to 1500m
200 to 500 ft
< 800m
< 200 ft
Symbols :   Thunderstorms  Fog  Heavy snow  Heavy precipitations  Wind > 20 kt






- Airport Elevation : 797 ft
- IATA code : IND


KIND - Indianapolis International

CURRENT METAR :
  • 141254Z 00000KT 10SM FEW045 BKN120 23/18 A2994 RMK AO2 SLP131 TCU DSNT SE-S T02330183 $

EXPIRED METARs :
  • 141154Z 21004KT 10SM FEW045 SCT120 SCT180 BKN250 21/18 A2992 RMK AO2 SLP126 TCU DSNT SW-W 60000 70025 T02110183 10211 20189 55002 $
  • 141054Z 19006KT 10SM FEW055 SCT070 SCT120 BKN250 19/18 A2991 RMK AO2 SLP121 T01940183 $
  • 140954Z 23005KT 10SM FEW055 SCT070 BKN120 19/18 A2991 RMK AO2 RAB29E54 SLP122 P0000 T01940183 $
  • 140854Z 23007KT 10SM SCT120 OVC150 19/18 A2993 RMK AO2 LTG DSNT NW SLP128 60000 T01940183 51004 $

TAF KIND
Valid from the 14 at 12:00 until the 15 at 18:00 UTC


141120Z 1412/1518 VRB06KT P6SM BKN120
FM141900 33010KT P6SM SCT150
FM150300 04008KT P6SM SKC
KZID FIR / North America



MET'MAP, your aeronautical weather chart ! - Copyright ORBIFLY December 2007 - Disclaimer

ORBIFLY MET'MAP TEAM :

Programming & Development : Alexandra Zaïnal
Original concept : Baudouin d'Aumeries
Technical & hardware support : Manuel Goepfert
Assistance : Marc-Olivier Méhu




SOURCES & CREDITS :

   NOAA       Earth
Advisory